sensor_id;sensor_type;location;lat;lon;timestamp;temperature;humidity
14277;DHT22;7222;57.346;12.150;2023-08-31T00:01:35;13.40;99.90
14277;DHT22;7222;57.346;12.150;2023-08-31T00:04:03;13.30;99.90
14277;DHT22;7222;57.346;12.150;2023-08-31T00:06:33;13.40;99.90
14277;DHT22;7222;57.346;12.150;2023-08-31T00:09:00;13.30;99.90
14277;DHT22;7222;57.346;12.150;2023-08-31T00:11:27;13.30;99.90
14277;DHT22;7222;57.346;12.150;2023-08-31T00:13:56;13.30;99.90
14277;DHT22;7222;57.346;12.150;2023-08-31T00:16:24;13.30;99.90
14277;DHT22;7222;57.346;12.150;2023-08-31T00:18:52;13.30;99.90
14277;DHT22;7222;57.346;12.150;2023-08-31T00:21:22;13.30;99.90
14277;DHT22;7222;57.346;12.150;2023-08-31T00:23:49;13.30;99.90
14277;DHT22;7222;57.346;12.150;2023-08-31T00:26:16;13.30;99.90
14277;DHT22;7222;57.346;12.150;2023-08-31T00:28:43;13.30;99.90
14277;DHT22;7222;57.346;12.150;2023-08-31T00:31:11;13.30;99.90
14277;DHT22;7222;57.346;12.150;2023-08-31T00:33:38;13.30;99.90
14277;DHT22;7222;57.346;12.150;2023-08-31T00:36:05;13.40;99.90
14277;DHT22;7222;57.346;12.150;2023-08-31T00:38:33;13.40;99.90
14277;DHT22;7222;57.346;12.150;2023-08-31T00:41:00;13.30;99.90
14277;DHT22;7222;57.346;12.150;2023-08-31T00:43:27;13.30;99.90
14277;DHT22;7222;57.346;12.150;2023-08-31T00:45:56;13.20;99.90
14277;DHT22;7222;57.346;12.150;2023-08-31T00:48:25;13.20;99.90
14277;DHT22;7222;57.346;12.150;2023-08-31T00:50:52;13.20;99.90
14277;DHT22;7222;57.346;12.150;2023-08-31T00:53:19;13.20;99.90
14277;DHT22;7222;57.346;12.150;2023-08-31T00:55:46;13.20;99.90
14277;DHT22;7222;57.346;12.150;2023-08-31T00:58:14;13.30;99.90
14277;DHT22;7222;57.346;12.150;2023-08-31T01:00:43;13.20;99.90
14277;DHT22;7222;57.346;12.150;2023-08-31T01:03:19;13.20;99.90
14277;DHT22;7222;57.346;12.150;2023-08-31T01:05:54;13.30;99.90
14277;DHT22;7222;57.346;12.150;2023-08-31T01:08:33;13.20;99.90
14277;DHT22;7222;57.346;12.150;2023-08-31T01:11:10;13.20;99.90
14277;DHT22;7222;57.346;12.150;2023-08-31T01:13:45;13.30;99.90
14277;DHT22;7222;57.346;12.150;2023-08-31T01:16:16;13.30;99.90
14277;DHT22;7222;57.346;12.150;2023-08-31T01:18:45;13.30;99.90
14277;DHT22;7222;57.346;12.150;2023-08-31T01:21:21;13.30;99.90
14277;DHT22;7222;57.346;12.150;2023-08-31T01:23:53;13.30;99.90
14277;DHT22;7222;57.346;12.150;2023-08-31T01:26:21;13.30;99.90
14277;DHT22;7222;57.346;12.150;2023-08-31T01:28:49;13.30;99.90
14277;DHT22;7222;57.346;12.150;2023-08-31T01:31:16;13.40;99.90
14277;DHT22;7222;57.346;12.150;2023-08-31T01:33:43;13.40;99.90
14277;DHT22;7222;57.346;12.150;2023-08-31T01:36:19;13.40;99.90
14277;DHT22;7222;57.346;12.150;2023-08-31T01:38:52;13.50;99.90
14277;DHT22;7222;57.346;12.150;2023-08-31T01:41:24;13.40;99.90
14277;DHT22;7222;57.346;12.150;2023-08-31T01:43:52;13.30;99.90
14277;DHT22;7222;57.346;12.150;2023-08-31T01:46:20;13.30;99.90
14277;DHT22;7222;57.346;12.150;2023-08-31T01:48:47;13.30;99.90
14277;DHT22;7222;57.346;12.150;2023-08-31T01:51:15;13.40;99.90
14277;DHT22;7222;57.346;12.150;2023-08-31T01:53:43;13.40;99.90
14277;DHT22;7222;57.346;12.150;2023-08-31T01:56:10;13.20;99.90
14277;DHT22;7222;57.346;12.150;2023-08-31T01:58:38;13.30;99.90
14277;DHT22;7222;57.346;12.150;2023-08-31T02:01:05;13.30;99.90
14277;DHT22;7222;57.346;12.150;2023-08-31T02:03:32;13.40;99.90
14277;DHT22;7222;57.346;12.150;2023-08-31T02:05:59;13.30;99.90
14277;DHT22;7222;57.346;12.150;2023-08-31T02:08:26;13.40;99.90
14277;DHT22;7222;57.346;12.150;2023-08-31T02:10:53;13.40;99.90
14277;DHT22;7222;57.346;12.150;2023-08-31T02:13:20;13.30;99.90
14277;DHT22;7222;57.346;12.150;2023-08-31T02:15:51;13.30;99.90
14277;DHT22;7222;57.346;12.150;2023-08-31T02:18:18;13.20;99.90
14277;DHT22;7222;57.346;12.150;2023-08-31T02:20:45;13.20;99.90
14277;DHT22;7222;57.346;12.150;2023-08-31T02:23:12;13.20;99.90
14277;DHT22;7222;57.346;12.150;2023-08-31T02:25:38;13.20;99.90
14277;DHT22;7222;57.346;12.150;2023-08-31T02:28:06;13.30;99.90
14277;DHT22;7222;57.346;12.150;2023-08-31T02:30:33;13.10;99.90
14277;DHT22;7222;57.346;12.150;2023-08-31T02:33:02;13.20;99.90
14277;DHT22;7222;57.346;12.150;2023-08-31T02:35:29;13.20;99.90
14277;DHT22;7222;57.346;12.150;2023-08-31T02:37:56;13.30;99.90
14277;DHT22;7222;57.346;12.150;2023-08-31T02:40:23;13.40;99.90
14277;DHT22;7222;57.346;12.150;2023-08-31T02:42:50;13.40;99.90
14277;DHT22;7222;57.346;12.150;2023-08-31T02:45:18;13.30;99.90
14277;DHT22;7222;57.346;12.150;2023-08-31T02:47:45;13.30;99.90
14277;DHT22;7222;57.346;12.150;2023-08-31T02:50:13;13.20;99.90
14277;DHT22;7222;57.346;12.150;2023-08-31T02:52:40;13.20;99.90
14277;DHT22;7222;57.346;12.150;2023-08-31T02:55:07;13.20;99.90
14277;DHT22;7222;57.346;12.150;2023-08-31T02:57:35;13.30;99.90
14277;DHT22;7222;57.346;12.150;2023-08-31T03:00:03;13.20;99.90
14277;DHT22;7222;57.346;12.150;2023-08-31T03:02:34;13.30;99.90
14277;DHT22;7222;57.346;12.150;2023-08-31T03:05:01;13.20;99.90
14277;DHT22;7222;57.346;12.150;2023-08-31T03:07:30;13.30;99.90
14277;DHT22;7222;57.346;12.150;2023-08-31T03:09:57;13.30;99.90
14277;DHT22;7222;57.346;12.150;2023-08-31T03:12:24;13.30;99.90
14277;DHT22;7222;57.346;12.150;2023-08-31T03:14:50;13.30;99.90
14277;DHT22;7222;57.346;12.150;2023-08-31T03:17:17;13.30;99.90
14277;DHT22;7222;57.346;12.150;2023-08-31T03:19:44;13.30;99.90
14277;DHT22;7222;57.346;12.150;2023-08-31T03:22:11;13.40;99.90
14277;DHT22;7222;57.346;12.150;2023-08-31T03:24:39;13.40;99.90
14277;DHT22;7222;57.346;12.150;2023-08-31T03:27:06;13.30;99.90
14277;DHT22;7222;57.346;12.150;2023-08-31T03:29:33;13.30;99.90
14277;DHT22;7222;57.346;12.150;2023-08-31T03:32:00;13.40;99.90
14277;DHT22;7222;57.346;12.150;2023-08-31T03:34:28;13.40;99.90
14277;DHT22;7222;57.346;12.150;2023-08-31T03:36:56;13.30;99.90
14277;DHT22;7222;57.346;12.150;2023-08-31T03:39:23;13.10;99.90
14277;DHT22;7222;57.346;12.150;2023-08-31T03:41:51;13.00;99.90
14277;DHT22;7222;57.346;12.150;2023-08-31T03:44:20;13.10;99.90
14277;DHT22;7222;57.346;12.150;2023-08-31T03:46:46;13.10;99.90
14277;DHT22;7222;57.346;12.150;2023-08-31T03:49:13;13.10;99.90
14277;DHT22;7222;57.346;12.150;2023-08-31T03:51:40;13.10;99.90
14277;DHT22;7222;57.346;12.150;2023-08-31T03:54:09;13.20;99.90
14277;DHT22;7222;57.346;12.150;2023-08-31T03:56:35;13.20;99.90
14277;DHT22;7222;57.346;12.150;2023-08-31T03:59:05;13.10;99.90
14277;DHT22;7222;57.346;12.150;2023-08-31T04:01:32;13.10;99.90
14277;DHT22;7222;57.346;12.150;2023-08-31T04:03:59;13.10;99.90
14277;DHT22;7222;57.346;12.150;2023-08-31T04:06:26;13.00;99.90
14277;DHT22;7222;57.346;12.150;2023-08-31T04:08:55;13.10;99.90
14277;DHT22;7222;57.346;12.150;2023-08-31T04:11:22;12.90;99.90
14277;DHT22;7222;57.346;12.150;2023-08-31T04:13:49;12.90;99.90
14277;DHT22;7222;57.346;12.150;2023-08-31T04:16:18;12.90;99.90
14277;DHT22;7222;57.346;12.150;2023-08-31T04:18:44;12.90;99.90
14277;DHT22;7222;57.346;12.150;2023-08-31T04:21:16;12.90;99.90
14277;DHT22;7222;57.346;12.150;2023-08-31T04:23:43;12.80;99.90
14277;DHT22;7222;57.346;12.150;2023-08-31T04:26:11;12.70;99.90
14277;DHT22;7222;57.346;12.150;2023-08-31T04:28:38;12.70;99.90
14277;DHT22;7222;57.346;12.150;2023-08-31T04:31:06;12.80;99.90
14277;DHT22;7222;57.346;12.150;2023-08-31T04:33:35;12.80;99.90
14277;DHT22;7222;57.346;12.150;2023-08-31T04:36:02;12.70;99.90
14277;DHT22;7222;57.346;12.150;2023-08-31T04:38:30;12.70;99.90
14277;DHT22;7222;57.346;12.150;2023-08-31T04:40:58;12.60;99.90
14277;DHT22;7222;57.346;12.150;2023-08-31T04:43:25;12.60;99.90
14277;DHT22;7222;57.346;12.150;2023-08-31T04:45:52;12.60;99.90
14277;DHT22;7222;57.346;12.150;2023-08-31T04:48:19;12.60;99.90
14277;DHT22;7222;57.346;12.150;2023-08-31T04:50:47;12.60;99.90
14277;DHT22;7222;57.346;12.150;2023-08-31T04:53:14;12.60;99.90
14277;DHT22;7222;57.346;12.150;2023-08-31T04:55:41;12.80;99.90
14277;DHT22;7222;57.346;12.150;2023-08-31T04:58:08;12.80;99.90
14277;DHT22;7222;57.346;12.150;2023-08-31T05:00:36;12.90;99.90
14277;DHT22;7222;57.346;12.150;2023-08-31T05:03:04;12.80;99.90
14277;DHT22;7222;57.346;12.150;2023-08-31T05:05:32;12.70;99.90
14277;DHT22;7222;57.346;12.150;2023-08-31T05:08:00;12.70;99.90
14277;DHT22;7222;57.346;12.150;2023-08-31T05:10:28;12.70;99.90
14277;DHT22;7222;57.346;12.150;2023-08-31T05:12:55;12.60;99.90
14277;DHT22;7222;57.346;12.150;2023-08-31T05:15:22;12.70;99.90
14277;DHT22;7222;57.346;12.150;2023-08-31T05:17:53;12.70;99.90
14277;DHT22;7222;57.346;12.150;2023-08-31T05:20:19;12.70;99.90
14277;DHT22;7222;57.346;12.150;2023-08-31T05:22:47;12.80;99.90
14277;DHT22;7222;57.346;12.150;2023-08-31T05:25:16;12.80;99.90
14277;DHT22;7222;57.346;12.150;2023-08-31T05:27:43;12.90;99.90
14277;DHT22;7222;57.346;12.150;2023-08-31T05:30:10;13.00;99.90
14277;DHT22;7222;57.346;12.150;2023-08-31T05:32:37;13.10;99.90
14277;DHT22;7222;57.346;12.150;2023-08-31T05:35:05;13.00;99.90
14277;DHT22;7222;57.346;12.150;2023-08-31T05:37:33;13.10;99.90
14277;DHT22;7222;57.346;12.150;2023-08-31T05:40:01;13.20;99.90
14277;DHT22;7222;57.346;12.150;2023-08-31T05:42:32;13.20;99.90
14277;DHT22;7222;57.346;12.150;2023-08-31T05:44:59;13.10;99.90
14277;DHT22;7222;57.346;12.150;2023-08-31T05:47:26;13.10;99.90
14277;DHT22;7222;57.346;12.150;2023-08-31T05:49:54;13.20;99.90
14277;DHT22;7222;57.346;12.150;2023-08-31T05:52:22;13.40;99.90
14277;DHT22;7222;57.346;12.150;2023-08-31T05:54:49;13.50;99.90
14277;DHT22;7222;57.346;12.150;2023-08-31T05:57:19;13.50;99.90
14277;DHT22;7222;57.346;12.150;2023-08-31T05:59:48;13.70;99.90
14277;DHT22;7222;57.346;12.150;2023-08-31T06:02:15;13.70;99.90
14277;DHT22;7222;57.346;12.150;2023-08-31T06:04:42;13.80;99.90
14277;DHT22;7222;57.346;12.150;2023-08-31T06:07:09;13.90;99.90
14277;DHT22;7222;57.346;12.150;2023-08-31T06:09:36;13.90;99.90
14277;DHT22;7222;57.346;12.150;2023-08-31T06:12:04;13.90;99.90
14277;DHT22;7222;57.346;12.150;2023-08-31T06:14:32;13.90;99.90
14277;DHT22;7222;57.346;12.150;2023-08-31T06:17:00;13.80;99.90
14277;DHT22;7222;57.346;12.150;2023-08-31T06:19:28;14.10;99.90
14277;DHT22;7222;57.346;12.150;2023-08-31T06:21:55;14.30;99.90
14277;DHT22;7222;57.346;12.150;2023-08-31T06:24:22;14.20;99.90
14277;DHT22;7222;57.346;12.150;2023-08-31T06:26:49;14.40;99.90
14277;DHT22;7222;57.346;12.150;2023-08-31T06:29:17;14.30;99.90
14277;DHT22;7222;57.346;12.150;2023-08-31T06:31:44;14.50;99.90
14277;DHT22;7222;57.346;12.150;2023-08-31T06:34:12;14.70;99.90
14277;DHT22;7222;57.346;12.150;2023-08-31T06:36:39;14.80;99.90
14277;DHT22;7222;57.346;12.150;2023-08-31T06:39:06;14.90;99.90
14277;DHT22;7222;57.346;12.150;2023-08-31T06:41:33;14.90;99.90
14277;DHT22;7222;57.346;12.150;2023-08-31T06:44:01;15.20;99.90
14277;DHT22;7222;57.346;12.150;2023-08-31T06:46:28;15.30;99.90
14277;DHT22;7222;57.346;12.150;2023-08-31T06:48:55;15.30;99.90
14277;DHT22;7222;57.346;12.150;2023-08-31T06:51:24;15.40;99.90
14277;DHT22;7222;57.346;12.150;2023-08-31T06:53:51;15.50;99.90
14277;DHT22;7222;57.346;12.150;2023-08-31T06:56:18;15.70;99.90
14277;DHT22;7222;57.346;12.150;2023-08-31T06:58:45;15.60;99.90
14277;DHT22;7222;57.346;12.150;2023-08-31T07:01:12;15.80;99.90
14277;DHT22;7222;57.346;12.150;2023-08-31T07:03:40;15.60;99.90
14277;DHT22;7222;57.346;12.150;2023-08-31T07:06:07;15.90;99.90
14277;DHT22;7222;57.346;12.150;2023-08-31T07:08:35;16.00;99.90
14277;DHT22;7222;57.346;12.150;2023-08-31T07:11:06;16.10;99.90
14277;DHT22;7222;57.346;12.150;2023-08-31T07:13:33;16.30;99.90
14277;DHT22;7222;57.346;12.150;2023-08-31T07:16:00;16.50;99.90
14277;DHT22;7222;57.346;12.150;2023-08-31T07:18:27;16.60;99.90
14277;DHT22;7222;57.346;12.150;2023-08-31T07:20:54;16.70;99.90
14277;DHT22;7222;57.346;12.150;2023-08-31T07:23:21;16.70;99.90
14277;DHT22;7222;57.346;12.150;2023-08-31T07:25:50;16.90;99.90
14277;DHT22;7222;57.346;12.150;2023-08-31T07:28:17;17.10;99.90
14277;DHT22;7222;57.346;12.150;2023-08-31T07:30:44;17.20;99.90
14277;DHT22;7222;57.346;12.150;2023-08-31T07:33:11;17.40;99.90
14277;DHT22;7222;57.346;12.150;2023-08-31T07:35:38;17.60;99.90
14277;DHT22;7222;57.346;12.150;2023-08-31T07:38:05;17.80;99.90
14277;DHT22;7222;57.346;12.150;2023-08-31T07:40:32;18.00;99.90
14277;DHT22;7222;57.346;12.150;2023-08-31T07:43:01;18.30;99.90
14277;DHT22;7222;57.346;12.150;2023-08-31T07:45:29;18.40;99.90
14277;DHT22;7222;57.346;12.150;2023-08-31T07:47:56;18.60;99.90
14277;DHT22;7222;57.346;12.150;2023-08-31T07:50:23;18.80;99.90
14277;DHT22;7222;57.346;12.150;2023-08-31T07:52:50;19.00;99.90
14277;DHT22;7222;57.346;12.150;2023-08-31T07:55:17;19.30;99.90
14277;DHT22;7222;57.346;12.150;2023-08-31T07:57:44;19.40;99.90
14277;DHT22;7222;57.346;12.150;2023-08-31T08:00:14;19.70;99.90
14277;DHT22;7222;57.346;12.150;2023-08-31T08:02:41;19.80;99.90
14277;DHT22;7222;57.346;12.150;2023-08-31T08:05:08;19.80;99.90
14277;DHT22;7222;57.346;12.150;2023-08-31T08:07:35;19.90;99.90
14277;DHT22;7222;57.346;12.150;2023-08-31T08:10:03;20.00;99.90
14277;DHT22;7222;57.346;12.150;2023-08-31T08:12:37;20.10;99.90
14277;DHT22;7222;57.346;12.150;2023-08-31T08:15:06;20.10;99.90
14277;DHT22;7222;57.346;12.150;2023-08-31T08:17:35;20.30;99.90
14277;DHT22;7222;57.346;12.150;2023-08-31T08:20:03;20.50;99.90
14277;DHT22;7222;57.346;12.150;2023-08-31T08:22:30;20.60;99.90
14277;DHT22;7222;57.346;12.150;2023-08-31T08:24:57;20.70;99.90
14277;DHT22;7222;57.346;12.150;2023-08-31T08:27:25;20.70;99.90
14277;DHT22;7222;57.346;12.150;2023-08-31T08:29:52;20.80;99.90
14277;DHT22;7222;57.346;12.150;2023-08-31T08:32:19;21.00;99.90
14277;DHT22;7222;57.346;12.150;2023-08-31T08:34:47;21.20;99.90
14277;DHT22;7222;57.346;12.150;2023-08-31T08:37:14;21.40;99.90
14277;DHT22;7222;57.346;12.150;2023-08-31T08:39:41;21.60;99.90
14277;DHT22;7222;57.346;12.150;2023-08-31T08:42:10;21.70;99.90
14277;DHT22;7222;57.346;12.150;2023-08-31T08:44:37;21.80;67.40
14277;DHT22;7222;57.346;12.150;2023-08-31T08:47:05;21.80;1.00
14277;DHT22;7222;57.346;12.150;2023-08-31T08:49:33;21.90;1.00
14277;DHT22;7222;57.346;12.150;2023-08-31T08:52:03;21.90;99.90
14277;DHT22;7222;57.346;12.150;2023-08-31T08:54:32;22.00;1.00
14277;DHT22;7222;57.346;12.150;2023-08-31T08:56:59;22.10;99.90
14277;DHT22;7222;57.346;12.150;2023-08-31T08:59:26;22.30;99.90
14277;DHT22;7222;57.346;12.150;2023-08-31T09:01:53;22.40;1.00
14277;DHT22;7222;57.346;12.150;2023-08-31T09:04:20;22.50;1.00
14277;DHT22;7222;57.346;12.150;2023-08-31T09:06:48;22.50;99.90
14277;DHT22;7222;57.346;12.150;2023-08-31T09:09:18;22.50;99.90
14277;DHT22;7222;57.346;12.150;2023-08-31T09:11:45;22.70;1.00
14277;DHT22;7222;57.346;12.150;2023-08-31T09:14:16;23.10;1.00
14277;DHT22;7222;57.346;12.150;2023-08-31T09:16:44;23.20;1.00
14277;DHT22;7222;57.346;12.150;2023-08-31T09:19:18;23.40;1.00
14277;DHT22;7222;57.346;12.150;2023-08-31T09:21:47;23.60;9.50
14277;DHT22;7222;57.346;12.150;2023-08-31T09:24:14;23.80;99.90
14277;DHT22;7222;57.346;12.150;2023-08-31T09:26:45;23.80;99.90
14277;DHT22;7222;57.346;12.150;2023-08-31T09:29:13;23.90;1.00
14277;DHT22;7222;57.346;12.150;2023-08-31T09:31:42;24.00;1.00
14277;DHT22;7222;57.346;12.150;2023-08-31T09:34:09;24.10;99.90
14277;DHT22;7222;57.346;12.150;2023-08-31T09:36:36;24.20;1.00
14277;DHT22;7222;57.346;12.150;2023-08-31T09:39:05;24.40;1.00
14277;DHT22;7222;57.346;12.150;2023-08-31T09:41:32;24.50;99.90
14277;DHT22;7222;57.346;12.150;2023-08-31T09:44:14;24.50;99.90
14277;DHT22;7222;57.346;12.150;2023-08-31T09:46:43;24.70;1.00
14277;DHT22;7222;57.346;12.150;2023-08-31T09:49:11;24.70;1.00
14277;DHT22;7222;57.346;12.150;2023-08-31T09:51:44;24.90;99.90
14277;DHT22;7222;57.346;12.150;2023-08-31T09:54:14;24.90;82.30
14277;DHT22;7222;57.346;12.150;2023-08-31T09:56:42;24.90;1.00
14277;DHT22;7222;57.346;12.150;2023-08-31T09:59:12;25.00;1.00
14277;DHT22;7222;57.346;12.150;2023-08-31T10:01:39;25.00;99.90
14277;DHT22;7222;57.346;12.150;2023-08-31T10:04:07;25.10;99.90
14277;DHT22;7222;57.346;12.150;2023-08-31T10:06:34;25.20;99.90
14277;DHT22;7222;57.346;12.150;2023-08-31T10:09:03;25.20;95.50
14277;DHT22;7222;57.346;12.150;2023-08-31T10:11:31;25.20;1.00
14277;DHT22;7222;57.346;12.150;2023-08-31T10:13:58;25.30;1.00
14277;DHT22;7222;57.346;12.150;2023-08-31T10:16:27;25.40;1.00
14277;DHT22;7222;57.346;12.150;2023-08-31T10:18:54;25.50;1.00
14277;DHT22;7222;57.346;12.150;2023-08-31T10:21:22;25.60;99.90
14277;DHT22;7222;57.346;12.150;2023-08-31T10:23:49;25.70;99.90
14277;DHT22;7222;57.346;12.150;2023-08-31T10:26:24;25.80;99.90
14277;DHT22;7222;57.346;12.150;2023-08-31T10:28:52;25.90;99.90
14277;DHT22;7222;57.346;12.150;2023-08-31T10:31:19;25.90;99.90
14277;DHT22;7222;57.346;12.150;2023-08-31T10:33:56;25.90;99.90
14277;DHT22;7222;57.346;12.150;2023-08-31T10:36:38;26.00;99.90
14277;DHT22;7222;57.346;12.150;2023-08-31T10:39:10;25.00;9.40
14277;DHT22;7222;57.346;12.150;2023-08-31T10:41:38;23.90;1.00
14277;DHT22;7222;57.346;12.150;2023-08-31T10:44:18;25.00;99.90
14277;DHT22;7222;57.346;12.150;2023-08-31T10:46:46;25.60;88.10
14277;DHT22;7222;57.346;12.150;2023-08-31T10:49:15;25.80;1.00
14277;DHT22;7222;57.346;12.150;2023-08-31T10:51:43;26.10;1.00
14277;DHT22;7222;57.346;12.150;2023-08-31T10:54:11;26.10;1.00
14277;DHT22;7222;57.346;12.150;2023-08-31T10:56:54;25.80;99.90
14277;DHT22;7222;57.346;12.150;2023-08-31T10:59:22;25.20;1.00
14277;DHT22;7222;57.346;12.150;2023-08-31T11:01:55;24.90;1.00
14277;DHT22;7222;57.346;12.150;2023-08-31T11:04:24;25.50;1.00
14277;DHT22;7222;57.346;12.150;2023-08-31T11:07:14;25.70;1.00
14277;DHT22;7222;57.346;12.150;2023-08-31T11:09:42;25.50;99.90
14277;DHT22;7222;57.346;12.150;2023-08-31T11:12:09;24.50;1.00
14277;DHT22;7222;57.346;12.150;2023-08-31T11:14:36;23.40;1.00
14277;DHT22;7222;57.346;12.150;2023-08-31T11:17:04;23.00;99.90
14277;DHT22;7222;57.346;12.150;2023-08-31T11:19:33;24.00;99.90
14277;DHT22;7222;57.346;12.150;2023-08-31T11:22:01;25.10;99.90
14277;DHT22;7222;57.346;12.150;2023-08-31T11:24:29;25.60;1.00
14277;DHT22;7222;57.346;12.150;2023-08-31T11:26:56;26.00;1.00
14277;DHT22;7222;57.346;12.150;2023-08-31T11:29:23;25.40;1.00
14277;DHT22;7222;57.346;12.150;2023-08-31T11:31:50;25.90;99.90
14277;DHT22;7222;57.346;12.150;2023-08-31T11:34:17;25.70;99.90
14277;DHT22;7222;57.346;12.150;2023-08-31T11:36:46;25.60;99.90
14277;DHT22;7222;57.346;12.150;2023-08-31T11:39:13;25.30;99.90
14277;DHT22;7222;57.346;12.150;2023-08-31T11:41:42;25.10;99.90
14277;DHT22;7222;57.346;12.150;2023-08-31T11:44:09;25.70;99.90
14277;DHT22;7222;57.346;12.150;2023-08-31T11:46:37;25.90;99.90
14277;DHT22;7222;57.346;12.150;2023-08-31T11:49:05;26.10;99.90
14277;DHT22;7222;57.346;12.150;2023-08-31T11:51:33;26.30;99.90
14277;DHT22;7222;57.346;12.150;2023-08-31T11:54:02;26.30;99.90
14277;DHT22;7222;57.346;12.150;2023-08-31T11:56:39;24.90;1.00
14277;DHT22;7222;57.346;12.150;2023-08-31T11:59:08;24.80;1.00
14277;DHT22;7222;57.346;12.150;2023-08-31T12:01:38;24.40;1.00
14277;DHT22;7222;57.346;12.150;2023-08-31T12:04:10;23.80;8.50
14277;DHT22;7222;57.346;12.150;2023-08-31T12:06:38;24.10;1.00
14277;DHT22;7222;57.346;12.150;2023-08-31T12:09:07;24.10;56.10
14277;DHT22;7222;57.346;12.150;2023-08-31T12:11:34;24.90;1.00
14277;DHT22;7222;57.346;12.150;2023-08-31T12:14:01;24.20;99.90
14277;DHT22;7222;57.346;12.150;2023-08-31T12:16:33;24.70;1.00
14277;DHT22;7222;57.346;12.150;2023-08-31T12:19:02;24.40;99.90
14277;DHT22;7222;57.346;12.150;2023-08-31T12:21:30;24.70;16.70
14277;DHT22;7222;57.346;12.150;2023-08-31T12:23:57;24.80;1.00
14277;DHT22;7222;57.346;12.150;2023-08-31T12:26:26;24.80;99.90
14277;DHT22;7222;57.346;12.150;2023-08-31T12:28:53;24.80;1.00
14277;DHT22;7222;57.346;12.150;2023-08-31T12:31:21;24.90;1.00
14277;DHT22;7222;57.346;12.150;2023-08-31T12:33:48;24.30;27.80
14277;DHT22;7222;57.346;12.150;2023-08-31T12:36:15;23.80;96.20
14277;DHT22;7222;57.346;12.150;2023-08-31T12:38:42;24.20;99.90
14277;DHT22;7222;57.346;12.150;2023-08-31T12:41:09;24.50;99.90
14277;DHT22;7222;57.346;12.150;2023-08-31T12:43:37;24.70;1.00
14277;DHT22;7222;57.346;12.150;2023-08-31T12:46:05;24.50;1.00
14277;DHT22;7222;57.346;12.150;2023-08-31T12:48:32;24.00;99.90
14277;DHT22;7222;57.346;12.150;2023-08-31T12:50:59;24.20;92.70
14277;DHT22;7222;57.346;12.150;2023-08-31T12:53:26;23.80;99.90
14277;DHT22;7222;57.346;12.150;2023-08-31T12:55:53;24.20;99.90
14277;DHT22;7222;57.346;12.150;2023-08-31T12:58:20;23.80;99.90
14277;DHT22;7222;57.346;12.150;2023-08-31T13:00:49;24.30;99.90
14277;DHT22;7222;57.346;12.150;2023-08-31T13:03:18;24.50;99.90
14277;DHT22;7222;57.346;12.150;2023-08-31T13:05:46;24.40;1.00
14277;DHT22;7222;57.346;12.150;2023-08-31T13:08:14;24.30;90.00
14277;DHT22;7222;57.346;12.150;2023-08-31T13:10:41;24.40;1.00
14277;DHT22;7222;57.346;12.150;2023-08-31T13:13:08;24.30;1.00
14277;DHT22;7222;57.346;12.150;2023-08-31T13:15:35;24.00;99.90
14277;DHT22;7222;57.346;12.150;2023-08-31T13:18:04;24.00;99.90
14277;DHT22;7222;57.346;12.150;2023-08-31T13:20:31;24.30;68.10
14277;DHT22;7222;57.346;12.150;2023-08-31T13:22:58;24.40;1.00
14277;DHT22;7222;57.346;12.150;2023-08-31T13:25:24;24.60;1.00
14277;DHT22;7222;57.346;12.150;2023-08-31T13:27:51;24.70;1.00
14277;DHT22;7222;57.346;12.150;2023-08-31T13:30:18;24.60;1.00
14277;DHT22;7222;57.346;12.150;2023-08-31T13:32:45;24.40;1.00
14277;DHT22;7222;57.346;12.150;2023-08-31T13:35:13;24.50;1.00
14277;DHT22;7222;57.346;12.150;2023-08-31T13:37:40;23.80;1.00
14277;DHT22;7222;57.346;12.150;2023-08-31T13:40:08;23.30;99.90
14277;DHT22;7222;57.346;12.150;2023-08-31T13:42:36;22.40;99.90
14277;DHT22;7222;57.346;12.150;2023-08-31T13:45:06;22.70;35.40
14277;DHT22;7222;57.346;12.150;2023-08-31T13:47:33;23.30;1.00
14277;DHT22;7222;57.346;12.150;2023-08-31T13:50:00;23.00;1.00
14277;DHT22;7222;57.346;12.150;2023-08-31T13:52:28;23.10;99.90
14277;DHT22;7222;57.346;12.150;2023-08-31T13:54:55;23.80;1.00
14277;DHT22;7222;57.346;12.150;2023-08-31T13:57:23;24.00;99.90
14277;DHT22;7222;57.346;12.150;2023-08-31T13:59:49;23.80;99.90
14277;DHT22;7222;57.346;12.150;2023-08-31T14:02:18;23.90;99.90
14277;DHT22;7222;57.346;12.150;2023-08-31T14:04:45;24.10;99.90
14277;DHT22;7222;57.346;12.150;2023-08-31T14:07:12;23.80;1.00
14277;DHT22;7222;57.346;12.150;2023-08-31T14:09:40;23.50;99.90
14277;DHT22;7222;57.346;12.150;2023-08-31T14:12:07;22.20;1.00
14277;DHT22;7222;57.346;12.150;2023-08-31T14:14:35;22.60;38.70
14277;DHT22;7222;57.346;12.150;2023-08-31T14:17:02;22.90;99.90
14277;DHT22;7222;57.346;12.150;2023-08-31T14:19:29;23.40;99.90
14277;DHT22;7222;57.346;12.150;2023-08-31T14:21:57;23.60;1.00
14277;DHT22;7222;57.346;12.150;2023-08-31T14:24:24;23.50;1.00
14277;DHT22;7222;57.346;12.150;2023-08-31T14:26:53;23.00;1.00
14277;DHT22;7222;57.346;12.150;2023-08-31T14:29:19;23.10;1.00
14277;DHT22;7222;57.346;12.150;2023-08-31T14:31:46;23.10;1.00
14277;DHT22;7222;57.346;12.150;2023-08-31T14:34:13;23.20;1.00
14277;DHT22;7222;57.346;12.150;2023-08-31T14:36:40;23.00;1.00
14277;DHT22;7222;57.346;12.150;2023-08-31T14:39:07;22.80;1.00
14277;DHT22;7222;57.346;12.150;2023-08-31T14:41:34;22.70;1.00
14277;DHT22;7222;57.346;12.150;2023-08-31T14:44:02;22.70;1.00
14277;DHT22;7222;57.346;12.150;2023-08-31T14:46:29;21.90;91.30
14277;DHT22;7222;57.346;12.150;2023-08-31T14:48:56;21.90;99.90
14277;DHT22;7222;57.346;12.150;2023-08-31T14:51:23;22.20;99.90
14277;DHT22;7222;57.346;12.150;2023-08-31T14:53:50;22.20;99.90
14277;DHT22;7222;57.346;12.150;2023-08-31T14:56:17;22.20;99.90
14277;DHT22;7222;57.346;12.150;2023-08-31T14:58:44;22.00;99.90
14277;DHT22;7222;57.346;12.150;2023-08-31T15:01:12;21.90;99.90
14277;DHT22;7222;57.346;12.150;2023-08-31T15:03:39;21.90;99.90
14277;DHT22;7222;57.346;12.150;2023-08-31T15:06:06;21.70;99.90
14277;DHT22;7222;57.346;12.150;2023-08-31T15:08:39;21.60;99.90
14277;DHT22;7222;57.346;12.150;2023-08-31T15:11:06;21.50;1.00
14277;DHT22;7222;57.346;12.150;2023-08-31T15:13:33;21.30;1.00
14277;DHT22;7222;57.346;12.150;2023-08-31T15:16:00;21.10;44.50
14277;DHT22;7222;57.346;12.150;2023-08-31T15:18:28;20.80;1.00
14277;DHT22;7222;57.346;12.150;2023-08-31T15:20:56;20.70;1.00
14277;DHT22;7222;57.346;12.150;2023-08-31T15:23:23;20.60;99.90
14277;DHT22;7222;57.346;12.150;2023-08-31T15:25:50;20.60;99.90
14277;DHT22;7222;57.346;12.150;2023-08-31T15:28:17;20.40;28.70
14277;DHT22;7222;57.346;12.150;2023-08-31T15:30:44;19.40;1.00
14277;DHT22;7222;57.346;12.150;2023-08-31T15:33:11;19.00;99.90
14277;DHT22;7222;57.346;12.150;2023-08-31T15:35:40;19.20;1.00
14277;DHT22;7222;57.346;12.150;2023-08-31T15:38:07;19.60;99.90
14277;DHT22;7222;57.346;12.150;2023-08-31T15:40:34;19.70;99.90